Time;durP1;ratioP1;P1;durP2;ratioP2;P2;SDS_P1;SDS_P2;PMS_P1;PMS_P2;Temp;Humidity;BMP_temperature;BMP_pressure;BME280_temperature;BME280_humidity;BME280_pressure;Samples;Min_cycle;Max_cycle;Signal;HPM_P1;HPM_P2
2024/04/05 00:04:37;;;;;;;0.00;0.00;;;;;;;15.30;54.61;96612.53;10428886;28;20424;-33
2024/04/05 00:09:41;;;;;;;0.37;0.10;;;;;;;15.35;54.63;96621.00;10424383;28;20518;-34
2024/04/05 00:14:42;;;;;;;0.00;0.00;;;;;;;15.35;55.01;96613.44;10414522;28;20037;-32
2024/04/05 00:19:43;;;;;;;0.00;0.00;;;;;;;15.33;54.75;96607.56;10415195;28;20061;-32
2024/04/05 00:24:43;;;;;;;0.10;0.10;;;;;;;15.34;54.76;96606.72;10433430;28;20551;-32
2024/04/05 00:29:43;;;;;;;0.40;0.10;;;;;;;15.33;54.79;96612.59;10418736;28;20611;-33
2024/04/05 00:34:44;;;;;;;0.00;0.00;;;;;;;15.34;54.68;96614.28;10414259;28;20048;-32
2024/04/05 00:39:44;;;;;;;0.10;0.10;;;;;;;15.31;55.14;96609.22;10424781;28;20112;-32
2024/04/05 00:44:44;;;;;;;0.37;0.20;;;;;;;15.34;54.86;96609.25;10426664;28;20120;-33
2024/04/05 00:49:46;;;;;;;0.00;0.00;;;;;;;15.33;55.17;96592.41;10417748;28;20049;-33
2024/04/05 00:54:47;;;;;;;0.40;0.10;;;;;;;15.33;54.65;96597.47;10420211;28;20385;-33
2024/04/05 00:59:47;;;;;;;0.03;0.00;;;;;;;15.34;54.55;96598.31;10419781;28;20045;-33
2024/04/05 01:04:48;;;;;;;0.07;0.07;;;;;;;15.34;54.90;96594.09;10418014;28;20542;-33
2024/04/05 01:09:48;;;;;;;0.13;0.10;;;;;;;15.32;54.95;96592.41;10425173;28;20403;-32
2024/04/05 01:14:48;;;;;;;0.00;0.00;;;;;;;15.35;55.01;96592.44;10429725;28;20311;-34
2024/04/05 01:19:51;;;;;;;0.00;0.00;;;;;;;15.35;54.82;96600.00;10414996;28;20042;-33
2024/04/05 01:24:52;;;;;;;0.05;0.05;;;;;;;15.32;54.94;96600.81;10425007;28;20037;-34
2024/04/05 01:29:52;;;;;;;0.23;0.10;;;;;;;15.34;54.92;96603.38;10414253;28;20045;-32
2024/04/05 01:34:52;;;;;;;0.10;0.10;;;;;;;15.32;54.64;96595.78;10409315;28;20304;-32
2024/04/05 01:39:53;;;;;;;0.00;0.00;;;;;;;15.32;54.68;96594.91;10416537;28;20041;-32
2024/04/05 01:44:53;;;;;;;0.00;0.00;;;;;;;15.33;55.16;96589.03;10413694;28;20034;-33
2024/04/05 01:49:54;;;;;;;0.00;0.00;;;;;;;15.33;54.75;96582.34;10417898;28;20303;-32
2024/04/05 01:54:55;;;;;;;0.13;0.10;;;;;;;15.29;54.47;96570.47;10426632;28;20037;-32
2024/04/05 01:59:56;;;;;;;0.10;0.10;;;;;;;15.32;55.03;96578.13;10408195;28;20041;-33
2024/04/05 02:04:56;;;;;;;0.10;0.10;;;;;;;15.33;54.66;96577.28;10412872;28;20033;-33
2024/04/05 02:09:56;;;;;;;0.07;0.03;;;;;;;15.31;54.68;96584.00;10419006;28;20113;-32
2024/04/05 02:14:57;;;;;;;0.10;0.10;;;;;;;15.32;55.03;96568.03;10428322;28;20034;-32
2024/04/05 02:19:57;;;;;;;0.10;0.10;;;;;;;15.32;54.78;96569.69;10420559;28;20304;-33
2024/04/05 02:24:58;;;;;;;0.00;0.00;;;;;;;15.31;54.71;96568.88;10418973;28;20045;-33
2024/04/05 02:29:58;;;;;;;0.17;0.10;;;;;;;15.34;55.06;96573.09;10410182;28;20041;-33
2024/04/05 02:34:58;;;;;;;0.00;0.00;;;;;;;15.32;55.10;96567.16;10423701;28;20042;-32
2024/04/05 02:39:59;;;;;;;0.10;0.10;;;;;;;15.32;54.78;96578.13;10417561;28;20107;-33
2024/04/05 02:44:59;;;;;;;0.10;0.10;;;;;;;15.31;55.04;96571.38;10421124;28;20315;-32
2024/04/05 02:49:59;;;;;;;0.10;0.10;;;;;;;15.28;54.76;96573.81;10418818;28;20280;-32
2024/04/05 02:55:00;;;;;;;0.03;0.00;;;;;;;15.32;55.17;96580.66;10430903;28;20029;-32
2024/04/05 03:00:00;;;;;;;0.00;0.00;;;;;;;15.32;54.75;96577.25;10429609;28;20100;-33
2024/04/05 03:05:03;;;;;;;0.10;0.10;;;;;;;15.31;54.69;96566.34;10414831;28;20033;-33
2024/04/05 03:10:04;;;;;;;0.00;0.00;;;;;;;15.30;55.06;96549.50;10419097;28;20045;-31
2024/04/05 03:15:04;;;;;;;0.00;0.00;;;;;;;15.28;54.64;96538.53;10426459;28;20288;-33
2024/04/05 03:20:06;;;;;;;0.10;0.10;;;;;;;15.27;54.80;96536.84;10420249;28;20033;-32
2024/04/05 03:25:08;;;;;;;0.08;0.00;;;;;;;15.30;55.00;96539.41;10419439;28;20491;-32
2024/04/05 03:30:08;;;;;;;0.45;0.10;;;;;;;15.30;54.69;96549.50;10419582;28;20465;-34
2024/04/05 03:35:09;;;;;;;0.32;0.15;;;;;;;15.31;54.63;96556.25;10425026;28;20037;-33
2024/04/05 03:40:11;;;;;;;0.20;0.10;;;;;;;15.31;54.94;96548.69;10423138;28;20052;-32
2024/04/05 03:45:11;;;;;;;0.00;0.00;;;;;;;15.27;54.87;96541.06;10427056;28;20437;-33
2024/04/05 03:50:11;;;;;;;0.00;0.00;;;;;;;15.29;54.99;96537.69;10414766;28;20029;-33
2024/04/05 03:55:12;;;;;;;0.37;0.10;;;;;;;15.30;54.80;96530.97;10413246;28;20057;-32
2024/04/05 04:00:12;;;;;;;0.00;0.00;;;;;;;15.29;54.63;96509.13;10410305;28;20407;-33
2024/04/05 04:05:13;;;;;;;0.00;0.00;;;;;;;15.28;54.66;96523.38;10414540;28;20383;-33
2024/04/05 04:10:14;;;;;;;0.13;0.10;;;;;;;15.30;55.00;96526.78;10417260;28;20045;-33
2024/04/05 04:15:15;;;;;;;0.00;0.00;;;;;;;15.30;55.22;96536.03;10414498;28;20507;-32
2024/04/05 04:20:16;;;;;;;0.00;0.00;;;;;;;15.30;54.69;96541.94;10415499;28;20098;-33
2024/04/05 04:25:16;;;;;;;0.08;0.08;;;;;;;15.29;55.29;96545.25;10413433;28;20074;-32
2024/04/05 04:30:16;;;;;;;0.10;0.10;;;;;;;15.29;54.75;96540.22;10423030;28;20024;-34
2024/04/05 04:35:17;;;;;;;0.00;0.00;;;;;;;15.29;55.07;96540.22;10410384;28;20047;-33
2024/04/05 04:40:17;;;;;;;0.00;0.00;;;;;;;15.30;55.19;96549.50;10418963;28;20056;-32
2024/04/05 04:45:18;;;;;;;0.00;0.00;;;;;;;15.29;55.00;96550.28;10411892;28;20033;-33
2024/04/05 04:50:18;;;;;;;0.10;0.00;;;;;;;15.29;54.59;96552.00;10422469;28;20036;-32
2024/04/05 04:55:19;;;;;;;0.10;0.10;;;;;;;15.30;54.66;96546.13;10422678;28;20029;-32
2024/04/05 05:00:19;;;;;;;0.00;0.00;;;;;;;15.28;55.12;96546.09;10422225;28;20049;-33
2024/04/05 05:05:20;;;;;;;0.08;0.08;;;;;;;15.30;54.91;96541.06;10418136;28;20028;-32
2024/04/05 05:10:20;;;;;;;0.00;0.00;;;;;;;15.28;55.19;96548.59;10416310;28;20595;-33
2024/04/05 05:15:20;;;;;;;0.00;0.00;;;;;;;15.28;54.80;96537.69;10421805;28;20283;-31
2024/04/05 05:20:26;;;;;;;0.10;0.10;;;;;;;15.27;54.96;96536.84;10409238;28;20519;-32
2024/04/05 05:25:27;;;;;;;0.15;0.03;;;;;;;15.29;54.90;96535.16;10416576;28;20058;-32
2024/04/05 05:30:27;;;;;;;0.13;0.10;;;;;;;15.29;54.70;96535.16;10412572;28;20053;-32
2024/04/05 05:35:27;;;;;;;0.13;0.13;;;;;;;15.27;54.72;96521.69;10411739;28;20041;-34
2024/04/05 05:40:28;;;;;;;0.57;0.10;;;;;;;15.29;54.56;96524.25;10411848;28;20517;-32
2024/04/05 05:45:29;;;;;;;0.20;0.10;;;;;;;15.29;54.96;96519.22;10408158;28;20295;-33
2024/04/05 05:50:29;;;;;;;0.10;0.10;;;;;;;15.27;54.92;96516.66;10410951;28;20049;-33
2024/04/05 05:55:29;;;;;;;0.27;0.10;;;;;;;15.28;55.04;96525.91;10417810;28;20090;-32
2024/04/05 06:00:30;;;;;;;0.07;0.07;;;;;;;15.28;54.65;96523.38;10413618;28;20040;-33
2024/04/05 06:05:30;;;;;;;0.35;0.10;;;;;;;15.28;55.16;96518.34;10412889;28;20112;-33
2024/04/05 06:10:31;;;;;;;0.10;0.10;;;;;;;15.27;55.04;96511.63;10408883;28;20028;-32
2024/04/05 06:15:31;;;;;;;0.13;0.00;;;;;;;15.27;54.75;96510.78;10409202;28;20025;-34
2024/04/05 06:20:32;;;;;;;0.00;0.00;;;;;;;15.26;55.14;96504.88;10408919;28;20036;-31
2024/04/05 06:25:32;;;;;;;0.00;0.00;;;;;;;15.27;54.73;96488.09;10414418;28;20045;-32
2024/04/05 06:30:36;;;;;;;0.20;0.10;;;;;;;15.27;54.80;96485.56;10413494;28;20033;-33
2024/04/05 06:35:37;;;;;;;0.00;0.00;;;;;;;15.27;55.01;96483.88;10410512;28;20024;-32
2024/04/05 06:40:39;;;;;;;0.00;0.00;;;;;;;15.28;54.54;96487.25;10408109;28;20043;-32
2024/04/05 06:45:39;;;;;;;0.00;0.00;;;;;;;15.26;54.86;96484.72;10410133;28;20406;-31
2024/04/05 06:50:39;;;;;;;0.27;0.10;;;;;;;15.26;54.94;96484.72;10414724;28;20035;-35
2024/04/05 06:55:49;;;;;;;0.10;0.10;;;;;;;15.26;54.98;96488.94;10410668;28;20029;-33
2024/04/05 07:00:50;;;;;;;0.55;0.20;;;;;;;15.26;54.09;96471.28;10410971;28;20095;-33
2024/04/05 07:05:59;;;;;;;0.00;0.00;;;;;;;15.25;54.66;96477.97;10413276;28;20092;-32
2024/04/05 07:11:00;;;;;;;0.10;0.10;;;;;;;15.26;54.91;96464.53;10407144;28;20045;-34
2024/04/05 07:16:00;;;;;;;0.00;0.00;;;;;;;15.26;54.96;96464.53;10408930;28;20036;-32
2024/04/05 07:21:01;;;;;;;0.03;0.00;;;;;;;15.25;55.03;96460.31;10408077;28;20044;-31
2024/04/05 07:26:01;;;;;;;0.10;0.10;;;;;;;15.26;54.83;96459.50;10410728;28;20037;-33
2024/04/05 07:31:03;;;;;;;0.03;0.03;;;;;;;15.26;54.78;96466.22;10410333;28;20284;-32
2024/04/05 07:36:07;;;;;;;0.25;0.10;;;;;;;15.26;54.86;96479.66;10415617;28;20036;-33
2024/04/05 07:41:09;;;;;;;0.20;0.08;;;;;;;15.27;54.66;96471.25;10417875;28;20041;-33
2024/04/05 07:46:09;;;;;;;0.00;0.00;;;;;;;15.25;55.03;96472.94;10412894;28;20076;-32
2024/04/05 07:51:10;;;;;;;0.10;0.10;;;;;;;15.27;55.04;96478.84;10414287;28;20091;-31
2024/04/05 07:56:10;;;;;;;0.10;0.10;;;;;;;15.27;54.63;96483.88;10415544;28;20039;-31
2024/04/05 08:01:11;;;;;;;0.10;0.10;;;;;;;15.26;54.78;96487.22;10411646;28;20506;-33
2024/04/05 08:06:11;;;;;;;0.20;0.20;;;;;;;15.25;54.75;96487.22;10414374;28;20059;-31
2024/04/05 08:11:12;;;;;;;0.07;0.07;;;;;;;15.26;54.75;96494.78;10410793;28;20041;-32
2024/04/05 08:16:12;;;;;;;0.10;0.10;;;;;;;15.24;54.56;96490.56;10414561;28;20299;-34
2024/04/05 08:21:12;;;;;;;0.00;0.00;;;;;;;15.25;55.06;96488.06;10412029;28;20863;-33
2024/04/05 08:26:13;;;;;;;0.00;0.00;;;;;;;15.24;54.64;96485.53;10413947;28;20036;-32
2024/04/05 08:31:14;;;;;;;0.10;0.10;;;;;;;15.27;54.98;96490.63;10413470;28;20220;-32
2024/04/05 08:36:14;;;;;;;0.00;0.00;;;;;;;15.25;54.70;96483.03;10412198;28;20503;-33
2024/04/05 08:41:24;;;;;;;0.20;0.20;;;;;;;15.27;55.07;96486.41;10411547;28;20040;-33
2024/04/05 08:46:25;;;;;;;0.15;0.15;;;;;;;15.26;55.14;96489.75;10401327;28;20041;-33
2024/04/05 08:51:25;;;;;;;0.28;0.15;;;;;;;15.26;55.10;96504.06;10409063;28;20162;-32
2024/04/05 08:56:28;;;;;;;0.10;0.10;;;;;;;15.24;55.22;96505.69;10410851;28;20172;-34
2024/04/05 09:01:30;;;;;;;0.10;0.00;;;;;;;15.26;55.06;96496.50;10411248;28;20379;-33
2024/04/05 09:06:31;;;;;;;0.00;0.00;;;;;;;15.16;54.76;96493.03;10409190;28;20045;-31
2024/04/05 09:11:31;;;;;;;0.00;0.00;;;;;;;15.25;55.08;96518.34;10406728;28;20045;-33
2024/04/05 09:16:31;;;;;;;0.13;0.13;;;;;;;15.25;54.87;96505.72;10409356;28;20314;-32
2024/04/05 09:21:32;;;;;;;0.10;0.10;;;;;;;15.26;55.07;96499.84;10409248;28;20030;-33
2024/04/05 09:26:32;;;;;;;0.10;0.10;;;;;;;15.26;54.76;96496.50;10407316;28;20361;-33
2024/04/05 09:31:34;;;;;;;0.08;0.08;;;;;;;15.25;54.68;96503.19;10406597;28;20041;-33
2024/04/05 09:36:36;;;;;;;0.20;0.10;;;;;;;15.27;54.75;96498.19;10406474;28;20058;-33
2024/04/05 09:41:36;;;;;;;0.10;0.10;;;;;;;15.26;55.19;96502.38;10405937;28;20526;-33
2024/04/05 09:46:37;;;;;;;0.20;0.10;;;;;;;15.24;54.83;96491.44;10405719;28;20057;-32
2024/04/05 09:51:46;;;;;;;0.20;0.10;;;;;;;15.26;55.23;96483.88;10405805;28;20040;-32
2024/04/05 09:56:48;;;;;;;0.10;0.10;;;;;;;15.27;54.92;96490.63;10405735;28;20028;-32
2024/04/05 10:01:50;;;;;;;0.10;0.10;;;;;;;15.25;54.90;96483.03;10405721;28;20076;-32
2024/04/05 10:06:50;;;;;;;0.10;0.10;;;;;;;15.26;55.07;96484.72;10404686;28;20037;-34
2024/04/05 10:11:51;;;;;;;0.00;0.00;;;;;;;15.26;54.97;96497.31;10405090;28;20025;-32
2024/04/05 10:16:52;;;;;;;0.10;0.10;;;;;;;15.27;55.18;96488.09;10405780;28;20025;-32
2024/04/05 10:22:14;;;;;;;0.10;0.00;;;;;;;15.27;55.04;96503.22;10403627;28;20499;-33
2024/04/05 10:27:22;;;;;;;2.28;0.73;;;;;;;15.27;55.16;96500.69;10404615;28;20029;-32
2024/04/05 10:32:23;;;;;;;0.10;0.10;;;;;;;15.27;55.20;96506.56;10395503;28;20408;-33
2024/04/05 10:37:24;;;;;;;0.00;0.00;;;;;;;15.27;55.25;96501.53;10403874;28;20030;-32
2024/04/05 10:42:26;;;;;;;0.00;0.00;;;;;;;15.28;55.16;96502.38;10402879;28;20045;-33
2024/04/05 10:47:30;;;;;;;0.60;0.30;;;;;;;15.22;55.11;96477.97;10402946;28;20075;-33
2024/04/05 10:52:36;;;;;;;0.00;0.00;;;;;;;15.26;55.09;96499.84;10418807;28;20033;-32
2024/04/05 10:57:37;;;;;;;0.10;0.00;;;;;;;15.28;54.90;96503.22;10422922;28;20406;-32
2024/04/05 11:02:40;;;;;;;0.00;0.00;;;;;;;15.28;55.33;96505.75;10425252;28;20040;-32
2024/04/05 11:07:42;;;;;;;0.10;0.10;;;;;;;15.24;55.24;96490.56;10414266;28;20107;-32
2024/04/05 11:12:46;;;;;;;0.00;0.00;;;;;;;15.24;54.86;96505.69;10427433;28;20064;-33
2024/04/05 11:17:57;;;;;;;0.77;0.30;;;;;;;15.26;55.50;96494.78;10420343;28;20099;-31
2024/04/05 11:23:06;;;;;;;4.72;0.60;;;;;;;15.46;54.60;96495.84;10411765;28;20033;-34
2024/04/05 11:28:18;;;;;;;8.52;0.70;;;;;;;15.69;54.39;96496.84;10425792;28;20029;-32
2024/04/05 11:33:19;;;;;;;4.40;0.70;;;;;;;15.52;54.91;96518.59;10419712;28;20025;-33
2024/04/05 11:38:19;;;;;;;26.63;2.50;;;;;;;15.42;54.66;96495.78;10425603;28;20045;-32
2024/04/05 11:43:20;;;;;;;17.67;1.98;;;;;;;15.47;54.49;96510.16;10423969;28;20045;-31
2024/04/05 11:48:23;;;;;;;12.18;1.40;;;;;;;15.76;54.94;96518.78;10421704;28;20049;-31
2024/04/05 11:53:24;;;;;;;6.20;0.75;;;;;;;16.21;53.61;96538.44;10419025;28;20072;-32
2024/04/05 11:58:25;;;;;;;8.45;2.33;;;;;;;15.76;54.33;96528.88;10420023;28;20044;-33
2024/04/05 12:03:25;;;;;;;9.63;1.33;;;;;;;15.74;54.66;96549.88;10425051;28;20033;-32
2024/04/05 12:08:26;;;;;;;7.20;1.20;;;;;;;15.71;54.52;96548.19;10424616;28;20111;-31
2024/04/05 12:13:26;;;;;;;6.10;1.08;;;;;;;15.74;55.08;96550.75;10416939;28;20037;-32
2024/04/05 12:18:26;;;;;;;7.07;1.07;;;;;;;15.70;54.63;96543.97;10410971;28;20037;-34
2024/04/05 12:23:27;;;;;;;5.20;0.90;;;;;;;15.72;55.22;96560.00;10422347;28;20088;-33
2024/04/05 12:28:27;;;;;;;9.83;1.77;;;;;;;15.71;54.94;96560.81;10406045;28;20041;-31
2024/04/05 12:33:28;;;;;;;4.25;1.08;;;;;;;15.68;55.11;96545.66;10407238;28;20037;-33
2024/04/05 12:38:38;;;;;;;13.02;1.27;;;;;;;15.75;55.33;96544.88;10431802;28;20033;-32
2024/04/05 12:43:39;;;;;;;18.35;2.63;;;;;;;15.74;54.88;96545.69;10405805;28;20504;-32
2024/04/05 12:48:39;;;;;;;9.00;1.48;;;;;;;15.74;54.92;96530.56;10420038;28;20133;-33
2024/04/05 12:53:41;;;;;;;9.97;2.00;;;;;;;15.74;55.05;96522.13;10412844;28;20072;-32
2024/04/05 12:58:47;;;;;;;8.75;2.20;;;;;;;15.71;55.11;96515.38;10412242;28;20051;-33
2024/04/05 13:03:47;;;;;;;9.33;2.27;;;;;;;15.70;54.68;96498.53;10418286;28;20116;-31
2024/04/05 13:08:48;;;;;;;8.27;3.30;;;;;;;15.71;54.43;96509.50;10413895;28;20041;-32
2024/04/05 13:13:49;;;;;;;16.93;4.30;;;;;;;15.70;55.00;96488.44;10417877;28;20408;-32
2024/04/05 13:18:51;;;;;;;23.13;3.60;;;;;;;15.72;55.67;96496.91;10415826;28;20095;-33
2024/04/05 13:23:51;;;;;;;11.05;2.63;;;;;;;15.70;55.44;96490.97;10404834;28;20041;-32
2024/04/05 13:28:54;;;;;;;13.77;2.90;;;;;;;15.68;55.19;96504.44;10414345;28;20034;-34
2024/04/05 13:33:57;;;;;;;11.68;2.55;;;;;;;15.67;55.27;96482.53;10426952;28;20025;-33
2024/04/05 13:38:57;;;;;;;6.47;1.98;;;;;;;15.63;55.04;96475.78;10426690;28;20112;-31
2024/04/05 13:43:57;;;;;;;6.95;1.80;;;;;;;15.61;55.76;96483.34;10416908;28;20037;-32
2024/04/05 13:48:58;;;;;;;6.75;2.17;;;;;;;15.64;55.05;96475.81;10407889;28;20239;-34
2024/04/05 13:53:58;;;;;;;12.27;2.03;;;;;;;15.61;55.44;96463.16;10406237;28;20267;-32
2024/04/05 13:58:59;;;;;;;6.13;1.63;;;;;;;15.61;55.19;96463.16;10408659;28;20066;-33
2024/04/05 14:03:59;;;;;;;3.57;1.70;;;;;;;15.61;55.24;96463.16;10403897;28;20303;-33
2024/04/05 14:08:59;;;;;;;4.33;1.90;;;;;;;15.63;55.13;96475.78;10418044;28;20041;-33
2024/04/05 14:14:00;;;;;;;10.50;2.50;;;;;;;15.65;54.63;96485.06;10411634;28;20202;-32
2024/04/05 14:19:01;;;;;;;4.43;1.80;;;;;;;15.65;55.52;96500.22;10404644;28;20045;-32
2024/04/05 14:24:01;;;;;;;22.60;3.40;;;;;;;15.64;55.60;96503.56;10418225;28;20789;-32
2024/04/05 14:29:02;;;;;;;9.67;2.00;;;;;;;15.63;54.24;96508.59;10426381;28;20037;-28
2024/04/05 14:34:02;;;;;;;4.97;1.30;;;;;;;15.64;54.37;96518.72;10416453;28;20031;-31
2024/04/05 14:39:03;;;;;;;2.43;1.27;;;;;;;15.60;54.50;96522.03;10410079;28;20100;-34
2024/04/05 14:44:04;;;;;;;2.65;0.82;;;;;;;15.58;53.34;96526.22;10406648;28;20302;-34
2024/04/05 14:49:05;;;;;;;1.52;0.70;;;;;;;15.57;53.30;96522.00;10410758;28;20505;-34
2024/04/05 14:54:05;;;;;;;6.88;0.90;;;;;;;15.61;53.28;96517.84;10412917;28;20480;-33
2024/04/05 14:59:06;;;;;;;1.77;0.80;;;;;;;15.62;54.74;96510.25;10419208;28;20036;-32
2024/04/05 15:04:08;;;;;;;3.33;0.70;;;;;;;15.62;54.48;96517.81;10421225;28;20077;-32
2024/04/05 15:09:10;;;;;;;6.30;1.70;;;;;;;15.54;54.20;96521.97;10418898;28;20025;-33
2024/04/05 15:14:11;;;;;;;7.30;1.42;;;;;;;15.60;54.36;96511.94;10431870;28;20088;-32
2024/04/05 15:19:11;;;;;;;3.40;1.08;;;;;;;15.63;55.05;96526.25;10429560;28;20079;-31
2024/04/05 15:24:13;;;;;;;4.57;1.00;;;;;;;15.62;54.23;96522.88;10416420;28;20075;-34
2024/04/05 15:29:13;;;;;;;2.33;0.75;;;;;;;15.63;54.36;96532.16;10414281;28;20021;-34
2024/04/05 15:34:14;;;;;;;2.22;0.80;;;;;;;15.63;54.60;96536.34;10430091;28;20025;-32
2024/04/05 15:39:14;;;;;;;1.63;0.80;;;;;;;15.66;54.49;96557.41;10414942;28;20045;-33
2024/04/05 15:44:14;;;;;;;2.70;1.10;;;;;;;15.65;54.70;96559.91;10425210;28;20032;-33
2024/04/05 15:49:15;;;;;;;24.20;1.23;;;;;;;15.65;54.21;96560.78;10433377;28;20037;-33
2024/04/05 15:54:15;;;;;;;1.50;0.80;;;;;;;15.64;54.70;96556.56;10432133;28;20037;-32
2024/04/05 15:59:15;;;;;;;2.63;1.00;;;;;;;15.64;54.41;96533.84;10434580;28;20280;-32
2024/04/05 16:04:16;;;;;;;7.63;1.40;;;;;;;15.60;54.60;96522.03;10418492;28;20303;-32
2024/04/05 16:09:17;;;;;;;7.72;1.27;;;;;;;15.64;54.48;96543.94;10420580;28;20658;-34
2024/04/05 16:14:17;;;;;;;3.38;1.25;;;;;;;15.66;54.62;96556.56;10406393;28;20026;-34
2024/04/05 16:19:18;;;;;;;4.53;0.97;;;;;;;15.64;54.93;96559.09;10411881;28;20045;-33
2024/04/05 16:24:18;;;;;;;2.55;1.08;;;;;;;15.65;54.96;96565.81;10424782;28;20124;-33
2024/04/05 16:29:19;;;;;;;4.07;1.00;;;;;;;15.64;54.88;96574.22;10413195;28;20041;-33
2024/04/05 16:34:19;;;;;;;3.40;0.90;;;;;;;15.63;54.96;96575.06;10417656;28;20411;-32
2024/04/05 16:39:19;;;;;;;2.07;1.17;;;;;;;15.63;55.07;96582.63;10407460;28;20144;-33
2024/04/05 16:44:20;;;;;;;2.67;0.93;;;;;;;15.63;54.72;96587.69;10411208;28;20418;-32
2024/04/05 16:49:20;;;;;;;2.63;0.60;;;;;;;15.64;54.72;96584.31;10422467;28;20044;-32
2024/04/05 16:54:21;;;;;;;2.43;0.70;;;;;;;15.63;54.77;96590.19;10413254;28;20034;-33
2024/04/05 16:59:21;;;;;;;2.67;0.70;;;;;;;15.62;54.86;96575.88;10421251;28;20345;-32
2024/04/05 17:04:23;;;;;;;4.27;1.23;;;;;;;15.63;54.92;96591.88;10416486;28;20291;-32
2024/04/05 17:09:23;;;;;;;3.00;0.95;;;;;;;15.63;54.98;96589.34;10409827;28;20037;-32
2024/04/05 17:14:23;;;;;;;6.97;1.00;;;;;;;15.64;55.45;96588.50;10430233;28;20029;-33
2024/04/05 17:19:24;;;;;;;2.80;0.80;;;;;;;15.64;54.79;96589.38;10415706;28;20041;-32
2024/04/05 17:24:24;;;;;;;2.57;0.83;;;;;;;15.63;55.06;96590.19;10414949;28;20045;-33
2024/04/05 17:29:24;;;;;;;1.20;0.50;;;;;;;15.63;54.83;96580.09;10408974;28;20037;-33
2024/04/05 17:34:25;;;;;;;0.80;0.50;;;;;;;15.60;54.85;96585.09;10410233;28;20034;-34
2024/04/05 17:39:25;;;;;;;3.20;1.73;;;;;;;15.63;54.69;96601.97;10404274;28;20041;-33
2024/04/05 17:44:25;;;;;;;0.70;0.50;;;;;;;15.63;54.90;96612.91;10408621;28;20113;-33
2024/04/05 17:49:27;;;;;;;1.50;0.83;;;;;;;15.59;54.45;96596.03;10413731;28;20399;-32
2024/04/05 17:54:27;;;;;;;1.42;0.70;;;;;;;15.63;54.65;96594.38;10408912;28;20033;-32
2024/04/05 17:59:28;;;;;;;2.37;0.60;;;;;;;15.63;54.60;96592.72;10412059;28;20063;-34
2024/04/05 18:04:31;;;;;;;1.07;0.60;;;;;;;15.63;54.80;96574.19;10422044;28;20068;-32
2024/04/05 18:09:32;;;;;;;1.58;0.57;;;;;;;15.63;54.98;96577.59;10411311;28;20484;-32
2024/04/05 18:14:32;;;;;;;0.93;0.47;;;;;;;15.63;54.49;96602.81;10416687;28;20052;-32
2024/04/05 18:19:33;;;;;;;1.00;0.60;;;;;;;15.64;55.16;96594.41;10414700;28;20495;-33
2024/04/05 18:24:33;;;;;;;1.73;0.70;;;;;;;15.64;54.98;96604.50;10412629;28;20398;-33
2024/04/05 18:29:34;;;;;;;0.73;0.50;;;;;;;15.62;54.44;96596.06;10410995;28;20300;-32
2024/04/05 18:34:35;;;;;;;1.67;1.00;;;;;;;15.64;54.46;96599.47;10420255;28;20123;-33
2024/04/05 18:39:35;;;;;;;1.80;0.77;;;;;;;15.64;54.98;96634.78;10405594;28;20048;-33
2024/04/05 18:44:36;;;;;;;1.77;0.50;;;;;;;15.65;54.68;96620.47;10411725;28;20522;-32
2024/04/05 18:49:37;;;;;;;0.90;0.70;;;;;;;15.63;54.28;96619.63;10406311;28;20457;-31
2024/04/05 18:54:38;;;;;;;2.58;0.90;;;;;;;15.63;54.85;96612.06;10406356;28;20288;-32
2024/04/05 18:59:38;;;;;;;0.73;0.60;;;;;;;15.63;54.29;96623.00;10414380;28;20437;-33
2024/04/05 19:04:39;;;;;;;3.25;0.77;;;;;;;15.67;55.42;96616.28;10403488;28;20049;-32
2024/04/05 19:09:40;;;;;;;1.13;0.60;;;;;;;15.67;54.95;96619.66;10413340;28;20025;-33
2024/04/05 19:14:41;;;;;;;1.25;0.50;;;;;;;15.65;55.25;96621.34;10420696;28;20639;-32
2024/04/05 19:19:42;;;;;;;2.72;0.60;;;;;;;15.68;56.58;96631.44;10410263;28;20042;-33
2024/04/05 19:24:46;;;;;;;2.53;0.88;;;;;;;15.69;56.29;96632.31;10416677;28;20033;-34
2024/04/05 19:29:47;;;;;;;22.42;1.88;;;;;;;15.63;55.27;96638.16;10415547;28;20030;-34
2024/04/05 19:34:48;;;;;;;14.77;1.92;;;;;;;15.73;55.56;96624.78;10411786;28;20014;-33
2024/04/05 19:39:53;;;;;;;8.95;0.90;;;;;;;15.74;55.31;96640.75;10409676;28;20037;-33
2024/04/05 19:44:54;;;;;;;12.45;1.00;;;;;;;15.74;55.20;96640.75;10405610;28;20029;-32
2024/04/05 19:49:54;;;;;;;2.20;1.03;;;;;;;15.74;55.54;96631.50;10409264;28;20037;-33
2024/04/05 19:54:54;;;;;;;3.67;0.73;;;;;;;15.73;55.57;96614.69;10405049;28;20026;-32
2024/04/05 19:59:55;;;;;;;1.60;0.60;;;;;;;15.70;55.29;96614.63;10414574;28;20033;-33
2024/04/05 20:04:55;;;;;;;2.22;0.95;;;;;;;15.77;55.41;96626.47;10418290;28;20038;-32
2024/04/05 20:09:56;;;;;;;4.33;0.60;;;;;;;15.75;55.42;96624.75;10417214;28;20113;-33
2024/04/05 20:14:56;;;;;;;3.10;0.87;;;;;;;15.74;55.82;96625.59;10408393;28;20021;-32
2024/04/05 20:19:57;;;;;;;2.13;0.80;;;;;;;15.73;55.74;96619.72;10409149;28;20036;-32
2024/04/05 20:24:59;;;;;;;4.22;1.20;;;;;;;15.74;55.93;96618.03;10408396;28;20437;-31
2024/04/05 20:35:18;;;;;;;2.88;0.70;;;;;;;15.74;55.73;96613.84;10404866;28;20041;-32
2024/04/05 20:40:19;;;;;;;1.23;0.53;;;;;;;15.73;55.88;96619.72;10404734;28;20531;-33
2024/04/05 20:45:19;;;;;;;3.53;1.00;;;;;;;15.74;56.62;96634.03;10419659;28;20045;-33
2024/04/05 20:50:19;;;;;;;3.47;1.13;;;;;;;15.76;56.53;96641.63;10413709;28;20124;-33
2024/04/05 20:55:21;;;;;;;2.00;0.97;;;;;;;15.77;56.47;96646.66;10412670;28;20041;-31
2024/04/05 21:00:21;;;;;;;3.30;1.00;;;;;;;15.76;56.38;96637.41;10409880;28;20037;-33
2024/04/05 21:05:22;;;;;;;2.58;0.80;;;;;;;15.75;57.12;96633.19;10409190;28;20037;-33
2024/04/05 21:10:22;;;;;;;10.07;1.52;;;;;;;15.77;57.32;96630.69;10411106;28;20496;-32
2024/04/05 21:15:22;;;;;;;8.30;1.13;;;;;;;15.75;57.39;96633.19;10418825;28;20033;-32
2024/04/05 21:20:23;;;;;;;2.47;0.77;;;;;;;15.76;56.88;96629.00;10431991;28;20029;-33
2024/04/05 21:25:23;;;;;;;2.08;0.60;;;;;;;15.77;56.85;96628.19;10419124;28;20041;-31
2024/04/05 21:30:24;;;;;;;2.63;0.50;;;;;;;15.75;57.37;96625.63;10407015;28;20037;-33
2024/04/05 21:35:24;;;;;;;0.97;0.60;;;;;;;15.76;57.06;96626.50;10407298;28;20529;-32
2024/04/05 21:40:24;;;;;;;2.47;0.97;;;;;;;15.76;57.02;96634.06;10411238;28;20570;-32
2024/04/05 21:45:25;;;;;;;3.20;0.97;;;;;;;15.76;56.59;96632.38;10415426;28;20033;-31
2024/04/05 21:50:25;;;;;;;3.10;0.73;;;;;;;15.76;56.89;96639.94;10411906;28;20041;-33
2024/04/05 21:55:25;;;;;;;3.13;1.93;;;;;;;15.74;56.60;96636.56;10409557;28;20212;-31
2024/04/05 22:00:27;;;;;;;1.23;0.70;;;;;;;15.77;56.80;96648.38;10414027;28;20391;-33
2024/04/05 22:05:28;;;;;;;1.02;0.63;;;;;;;15.78;56.78;96632.38;10411703;28;20423;-33
2024/04/05 22:10:29;;;;;;;2.22;1.40;;;;;;;15.76;56.59;96646.69;10405739;28;20036;-32
2024/04/05 22:15:30;;;;;;;1.73;0.85;;;;;;;15.78;56.77;96652.56;10406156;28;20041;-31
2024/04/05 22:20:30;;;;;;;1.23;0.75;;;;;;;15.79;57.22;96650.03;10405538;28;20508;-31
2024/04/05 22:25:30;;;;;;;0.50;0.43;;;;;;;15.79;56.15;96656.78;10408365;28;20037;-33
2024/04/05 22:30:31;;;;;;;2.40;0.63;;;;;;;15.78;56.41;96668.56;10406167;28;20056;-32
2024/04/05 22:35:32;;;;;;;1.15;0.57;;;;;;;15.76;56.34;96665.16;10407198;28;20041;-33
2024/04/05 22:40:32;;;;;;;1.90;0.80;;;;;;;15.78;56.67;96678.66;10410627;28;20391;-32
2024/04/05 22:45:32;;;;;;;4.10;1.00;;;;;;;15.77;56.77;96671.09;10402632;28;20103;-34
2024/04/05 22:50:33;;;;;;;2.03;0.60;;;;;;;15.77;56.63;96673.59;10410255;28;20446;-32
2024/04/05 22:55:35;;;;;;;1.80;0.67;;;;;;;15.78;57.02;96683.69;10410528;28;20425;-33
2024/04/05 23:00:36;;;;;;;0.70;0.70;;;;;;;15.76;56.81;96687.88;10406583;28;20041;-32
2024/04/05 23:05:36;;;;;;;1.10;0.67;;;;;;;15.77;56.71;96686.22;10411540;28;20103;-34
2024/04/05 23:10:37;;;;;;;0.88;0.60;;;;;;;15.76;56.84;96680.31;10417320;28;20310;-34
2024/04/05 23:15:37;;;;;;;1.00;0.50;;;;;;;15.75;56.93;96678.63;10414255;28;20438;-32
2024/04/05 23:20:37;;;;;;;5.17;1.07;;;;;;;15.76;56.63;96692.09;10416219;28;20446;-33
2024/04/05 23:25:38;;;;;;;0.83;0.60;;;;;;;15.75;56.80;96693.78;10411863;28;20037;-35